WMT3502 LIPZ-EPKK
Flight info
| Callsign | WMT3502 |
|---|---|
| Flight time | 1h 18m |
| Altitude | 35000 |
| Route | ROSKA M859 MONFA DCT BARPI DCT LAPNA DCT GOLVA DCT ABLOM DCT MOMEP M985 MEBAN |
| Aircraft | A21N/M-SDE1E2E3FGIJ1J4RWXY/LB1 |
Departure
| Time | 2026-04-30 11:20 |
|---|---|
| Airport | Venice Marco Polo Airport (LIPZ) |
Arrival
| Time | 2026-04-30 12:38 |
|---|---|
| Airport | Kraków John Paul II International Airport (EPKK) |
| Time | Latitude | Longitude | Altitude | Speed | Heading |
|---|---|---|---|---|---|
| 2026-04-30 10:59 | 45.50489 | 12.34209 | 9 ft | 0 kts | 265° |
| 2026-04-30 11:12 | 45.50489 | 12.34218 | 9 ft | 2 kts | 265° |
| 2026-04-30 11:12 | 45.50490 | 12.34240 | 9 ft | 2 kts | 265° |
| 2026-04-30 11:12 | 45.50491 | 12.34261 | 9 ft | 2 kts | 265° |
| 2026-04-30 11:13 | 45.50493 | 12.34283 | 9 ft | 2 kts | 265° |
| 2026-04-30 11:13 | 45.50494 | 12.34303 | 9 ft | 1 kts | 265° |
| 2026-04-30 11:13 | 45.50495 | 12.34318 | 9 ft | 2 kts | 247° |
| 2026-04-30 11:13 | 45.50503 | 12.34335 | 9 ft | 2 kts | 214° |
| 2026-04-30 11:14 | 45.50517 | 12.34343 | 9 ft | 1 kts | 183° |
| 2026-04-30 11:14 | 45.50523 | 12.34342 | 9 ft | 1 kts | 173° |
| 2026-04-30 11:14 | 45.50526 | 12.34342 | 9 ft | 0 kts | 176° |
| 2026-04-30 11:15 | 45.50525 | 12.34342 | 9 ft | 0 kts | 176° |
| 2026-04-30 11:16 | 45.50487 | 12.34347 | 9 ft | 13 kts | 176° |
| 2026-04-30 11:16 | 45.50354 | 12.34357 | 9 ft | 21 kts | 176° |
| 2026-04-30 11:16 | 45.50241 | 12.34300 | 11 ft | 16 kts | 221° |
| 2026-04-30 11:16 | 45.50158 | 12.34192 | 12 ft | 17 kts | 223° |
| 2026-04-30 11:17 | 45.50067 | 12.34071 | 12 ft | 18 kts | 221° |
| 2026-04-30 11:17 | 45.49968 | 12.33943 | 10 ft | 20 kts | 222° |
| 2026-04-30 11:17 | 45.49858 | 12.33804 | 9 ft | 21 kts | 222° |
| 2026-04-30 11:17 | 45.49742 | 12.33670 | 9 ft | 17 kts | 199° |
| 2026-04-30 11:18 | 45.49640 | 12.33606 | 8 ft | 12 kts | 201° |
| 2026-04-30 11:18 | 45.49540 | 12.33569 | 7 ft | 5 kts | 93° |
| 2026-04-30 11:18 | 45.49560 | 12.33615 | 8 ft | 6 kts | 32° |
| 2026-04-30 11:19 | 45.49657 | 12.33729 | 9 ft | 46 kts | 46° |
| 2026-04-30 11:19 | 45.50074 | 12.34282 | 10 ft | 114 kts | 40° |
| 2026-04-30 11:19 | 45.50815 | 12.35228 | 28 ft | 165 kts | 47° |
| 2026-04-30 11:19 | 45.51633 | 12.36423 | 553 ft | 169 kts | 50° |
| 2026-04-30 11:20 | 45.52411 | 12.37648 | 1317 ft | 167 kts | 50° |
| 2026-04-30 11:20 | 45.53186 | 12.38840 | 1985 ft | 168 kts | 52° |
| 2026-04-30 11:20 | 45.53669 | 12.40379 | 2331 ft | 179 kts | 85° |
| 2026-04-30 11:20 | 45.53554 | 12.42180 | 2689 ft | 192 kts | 99° |
| 2026-04-30 11:21 | 45.53332 | 12.44107 | 3212 ft | 197 kts | 99° |
| 2026-04-30 11:21 | 45.53111 | 12.46010 | 3832 ft | 197 kts | 97° |
| 2026-04-30 11:21 | 45.52900 | 12.47948 | 4435 ft | 199 kts | 96° |
| 2026-04-30 11:21 | 45.52699 | 12.49901 | 4993 ft | 203 kts | 96° |
| 2026-04-30 11:22 | 45.52494 | 12.51896 | 5546 ft | 207 kts | 96° |
| 2026-04-30 11:22 | 45.52210 | 12.53914 | 6134 ft | 212 kts | 107° |
| 2026-04-30 11:22 | 45.51438 | 12.55749 | 6653 ft | 223 kts | 126° |
| 2026-04-30 11:22 | 45.50339 | 12.57491 | 6952 ft | 245 kts | 130° |
| 2026-04-30 11:23 | 45.49130 | 12.59281 | 7352 ft | 263 kts | 131° |
| 2026-04-30 11:23 | 45.47829 | 12.61211 | 7816 ft | 278 kts | 130° |
| 2026-04-30 11:23 | 45.45147 | 12.65248 | 9311 ft | 284 kts | 130° |
| 2026-04-30 11:24 | 45.43787 | 12.67322 | 10057 ft | 287 kts | 130° |
| 2026-04-30 11:24 | 45.42430 | 12.69401 | 10735 ft | 292 kts | 130° |
| 2026-04-30 11:24 | 45.41027 | 12.71549 | 11156 ft | 305 kts | 130° |
| 2026-04-30 11:25 | 45.38073 | 12.76044 | 12461 ft | 314 kts | 131° |
| 2026-04-30 11:25 | 45.36577 | 12.78312 | 13122 ft | 318 kts | 131° |
| 2026-04-30 11:25 | 45.33611 | 12.82966 | 14368 ft | 323 kts | 121° |
| 2026-04-30 11:26 | 45.32823 | 12.89000 | 15519 ft | 317 kts | 74° |
| 2026-04-30 11:26 | 45.33698 | 12.91857 | 16113 ft | 316 kts | 58° |
| 2026-04-30 11:26 | 45.34828 | 12.94525 | 16679 ft | 319 kts | 56° |
| 2026-04-30 11:27 | 45.35981 | 12.97217 | 17231 ft | 323 kts | 56° |
| 2026-04-30 11:27 | 45.37147 | 12.99962 | 17784 ft | 326 kts | 56° |
| 2026-04-30 11:27 | 45.38312 | 13.02733 | 18342 ft | 328 kts | 56° |
| 2026-04-30 11:27 | 45.39486 | 13.05543 | 18895 ft | 331 kts | 56° |
| 2026-04-30 11:28 | 45.41829 | 13.11176 | 19938 ft | 337 kts | 56° |
| 2026-04-30 11:28 | 45.43022 | 13.14054 | 20450 ft | 339 kts | 56° |
| 2026-04-30 11:28 | 45.44224 | 13.16959 | 20958 ft | 342 kts | 56° |
| 2026-04-30 11:29 | 45.45433 | 13.19887 | 21449 ft | 345 kts | 56° |
| 2026-04-30 11:29 | 45.46631 | 13.22791 | 21937 ft | 347 kts | 56° |
| 2026-04-30 11:29 | 45.49084 | 13.28751 | 22890 ft | 351 kts | 56° |
| 2026-04-30 11:30 | 45.51548 | 13.34822 | 23787 ft | 357 kts | 56° |
| 2026-04-30 11:30 | 45.52785 | 13.37879 | 24224 ft | 359 kts | 56° |
| 2026-04-30 11:30 | 45.54018 | 13.40927 | 24646 ft | 361 kts | 56° |
| 2026-04-30 11:31 | 45.55283 | 13.44059 | 25056 ft | 364 kts | 56° |
| 2026-04-30 11:31 | 45.56549 | 13.47193 | 25460 ft | 366 kts | 56° |
| 2026-04-30 11:31 | 45.57824 | 13.50350 | 25831 ft | 369 kts | 56° |
| 2026-04-30 11:31 | 45.59176 | 13.53426 | 26208 ft | 370 kts | 52° |
| 2026-04-30 11:32 | 45.60644 | 13.56461 | 26600 ft | 371 kts | 51° |
| 2026-04-30 11:32 | 45.62107 | 13.59435 | 26982 ft | 373 kts | 51° |
| 2026-04-30 11:32 | 45.63607 | 13.62484 | 27343 ft | 375 kts | 51° |
| 2026-04-30 11:33 | 45.66624 | 13.68638 | 28023 ft | 380 kts | 52° |
| 2026-04-30 11:33 | 45.68137 | 13.71741 | 28354 ft | 382 kts | 52° |
| 2026-04-30 11:33 | 45.69648 | 13.74843 | 28683 ft | 384 kts | 52° |
| 2026-04-30 11:33 | 45.71180 | 13.77986 | 29004 ft | 387 kts | 52° |
| 2026-04-30 11:34 | 45.72727 | 13.81160 | 29343 ft | 389 kts | 52° |
| 2026-04-30 11:34 | 45.74280 | 13.84350 | 29675 ft | 391 kts | 52° |
| 2026-04-30 11:34 | 45.75834 | 13.87545 | 29996 ft | 393 kts | 52° |
| 2026-04-30 11:34 | 45.77397 | 13.90759 | 30309 ft | 395 kts | 52° |
| 2026-04-30 11:35 | 45.78965 | 13.93991 | 30596 ft | 397 kts | 52° |
| 2026-04-30 11:35 | 45.80535 | 13.97227 | 30858 ft | 399 kts | 52° |
| 2026-04-30 11:35 | 45.82110 | 14.00478 | 31104 ft | 401 kts | 52° |
| 2026-04-30 11:35 | 45.83702 | 14.03768 | 31339 ft | 403 kts | 52° |
| 2026-04-30 11:36 | 45.85303 | 14.07077 | 31569 ft | 406 kts | 52° |
| 2026-04-30 11:36 | 45.86903 | 14.10396 | 31801 ft | 408 kts | 52° |
| 2026-04-30 11:36 | 45.88518 | 14.13745 | 32025 ft | 410 kts | 52° |
| 2026-04-30 11:36 | 45.90132 | 14.17099 | 32235 ft | 412 kts | 52° |
| 2026-04-30 11:37 | 45.91753 | 14.20466 | 32443 ft | 414 kts | 52° |
| 2026-04-30 11:37 | 45.93393 | 14.23877 | 32658 ft | 416 kts | 52° |
| 2026-04-30 11:37 | 45.95038 | 14.27307 | 32877 ft | 418 kts | 52° |
| 2026-04-30 11:37 | 45.96692 | 14.30758 | 33072 ft | 420 kts | 52° |
| 2026-04-30 11:38 | 45.98327 | 14.34172 | 33277 ft | 421 kts | 52° |
| 2026-04-30 11:38 | 45.99992 | 14.37654 | 33494 ft | 423 kts | 52° |
| 2026-04-30 11:38 | 46.01645 | 14.41115 | 33695 ft | 425 kts | 52° |
| 2026-04-30 11:38 | 46.03319 | 14.44627 | 33872 ft | 427 kts | 52° |
| 2026-04-30 11:39 | 46.04997 | 14.48150 | 34033 ft | 429 kts | 52° |
| 2026-04-30 11:39 | 46.06691 | 14.51711 | 34210 ft | 430 kts | 52° |
| 2026-04-30 11:39 | 46.08363 | 14.55230 | 34403 ft | 432 kts | 52° |
| 2026-04-30 11:39 | 46.10057 | 14.58800 | 34602 ft | 433 kts | 52° |
| 2026-04-30 11:40 | 46.11769 | 14.62394 | 34824 ft | 434 kts | 52° |
| 2026-04-30 11:40 | 46.13477 | 14.65974 | 35041 ft | 435 kts | 52° |
| 2026-04-30 11:40 | 46.15181 | 14.69569 | 35233 ft | 436 kts | 52° |
| 2026-04-30 11:40 | 46.16871 | 14.73148 | 35283 ft | 437 kts | 53° |
| 2026-04-30 11:41 | 46.20269 | 14.80363 | 35295 ft | 436 kts | 53° |
| 2026-04-30 11:41 | 46.23669 | 14.87600 | 35303 ft | 436 kts | 53° |
| 2026-04-30 11:42 | 46.27070 | 14.94853 | 35313 ft | 435 kts | 53° |
| 2026-04-30 11:42 | 46.30447 | 15.02077 | 35327 ft | 435 kts | 53° |
| 2026-04-30 11:43 | 46.33825 | 15.09314 | 35326 ft | 435 kts | 53° |
| 2026-04-30 11:43 | 46.37188 | 15.16544 | 35317 ft | 435 kts | 53° |
| 2026-04-30 11:44 | 46.40545 | 15.23777 | 35302 ft | 435 kts | 52° |
| 2026-04-30 11:44 | 46.43910 | 15.31046 | 35294 ft | 435 kts | 53° |
| 2026-04-30 11:45 | 46.47245 | 15.38273 | 35293 ft | 434 kts | 53° |
| 2026-04-30 11:45 | 46.50806 | 15.45319 | 35294 ft | 431 kts | 46° |
| 2026-04-30 11:46 | 46.54974 | 15.51436 | 35310 ft | 428 kts | 38° |
| 2026-04-30 11:46 | 46.59714 | 15.56539 | 35337 ft | 425 kts | 30° |
| 2026-04-30 11:47 | 46.64850 | 15.60663 | 35354 ft | 423 kts | 25° |
| 2026-04-30 11:47 | 46.70049 | 15.64682 | 35361 ft | 424 kts | 28° |
| 2026-04-30 11:48 | 46.74984 | 15.69402 | 35362 ft | 425 kts | 33° |
| 2026-04-30 11:48 | 46.79798 | 15.74364 | 35363 ft | 424 kts | 33° |
| 2026-04-30 11:49 | 46.84571 | 15.79290 | 35362 ft | 424 kts | 33° |
| 2026-04-30 11:49 | 46.89373 | 15.84248 | 35359 ft | 423 kts | 33° |
| 2026-04-30 11:50 | 46.94157 | 15.89192 | 35359 ft | 423 kts | 33° |
| 2026-04-30 11:50 | 46.98961 | 15.94165 | 35361 ft | 422 kts | 33° |
| 2026-04-30 11:51 | 47.03742 | 15.99125 | 35360 ft | 422 kts | 33° |
| 2026-04-30 11:51 | 47.08524 | 16.04098 | 35358 ft | 423 kts | 33° |
| 2026-04-30 11:52 | 47.13276 | 16.09034 | 35362 ft | 421 kts | 33° |
| 2026-04-30 11:52 | 47.18068 | 16.14013 | 35367 ft | 421 kts | 33° |
| 2026-04-30 11:53 | 47.22804 | 16.18961 | 35369 ft | 420 kts | 33° |
| 2026-04-30 11:53 | 47.27553 | 16.23939 | 35367 ft | 420 kts | 33° |
| 2026-04-30 11:54 | 47.32292 | 16.28919 | 35367 ft | 419 kts | 33° |
| 2026-04-30 11:54 | 47.37016 | 16.33898 | 35370 ft | 419 kts | 33° |
| 2026-04-30 11:55 | 47.41713 | 16.38858 | 35370 ft | 418 kts | 33° |
| 2026-04-30 11:55 | 47.46415 | 16.43835 | 35374 ft | 418 kts | 33° |
| 2026-04-30 11:56 | 47.51136 | 16.48843 | 35375 ft | 418 kts | 34° |
| 2026-04-30 11:56 | 47.55840 | 16.53845 | 35378 ft | 417 kts | 34° |
| 2026-04-30 11:57 | 47.60539 | 16.58852 | 35385 ft | 417 kts | 34° |
| 2026-04-30 11:57 | 47.65212 | 16.63843 | 35390 ft | 416 kts | 34° |
| 2026-04-30 11:58 | 47.69878 | 16.68856 | 35386 ft | 416 kts | 34° |
| 2026-04-30 11:58 | 47.74542 | 16.73880 | 35392 ft | 415 kts | 34° |
| 2026-04-30 11:59 | 47.79207 | 16.78904 | 35393 ft | 415 kts | 34° |
| 2026-04-30 11:59 | 47.83875 | 16.83934 | 35394 ft | 415 kts | 34° |
| 2026-04-30 12:00 | 47.88533 | 16.88961 | 35395 ft | 415 kts | 34° |
| 2026-04-30 12:00 | 47.93196 | 16.94004 | 35398 ft | 414 kts | 34° |
| 2026-04-30 12:01 | 47.97823 | 16.99022 | 35398 ft | 414 kts | 35° |
| 2026-04-30 12:01 | 48.02338 | 17.04329 | 35399 ft | 415 kts | 39° |
| 2026-04-30 12:02 | 48.06458 | 17.10350 | 35407 ft | 416 kts | 45° |
| 2026-04-30 12:02 | 48.10131 | 17.17045 | 35410 ft | 417 kts | 51° |
| 2026-04-30 12:03 | 48.14934 | 17.27882 | 35413 ft | 419 kts | 54° |
| 2026-04-30 12:04 | 48.18037 | 17.35158 | 35410 ft | 418 kts | 54° |
| 2026-04-30 12:04 | 48.21154 | 17.42496 | 35410 ft | 419 kts | 54° |
| 2026-04-30 12:05 | 48.24267 | 17.49846 | 35405 ft | 419 kts | 54° |
| 2026-04-30 12:05 | 48.27367 | 17.57186 | 35403 ft | 419 kts | 54° |
| 2026-04-30 12:06 | 48.30496 | 17.64618 | 35402 ft | 419 kts | 54° |
| 2026-04-30 12:06 | 48.33584 | 17.71992 | 35399 ft | 419 kts | 55° |
| 2026-04-30 12:07 | 48.36691 | 17.79430 | 35397 ft | 419 kts | 55° |
| 2026-04-30 12:07 | 48.39779 | 17.86831 | 35398 ft | 419 kts | 55° |
| 2026-04-30 12:08 | 48.42880 | 17.94278 | 35395 ft | 419 kts | 55° |
| 2026-04-30 12:08 | 48.45953 | 18.01674 | 35391 ft | 419 kts | 55° |
| 2026-04-30 12:09 | 48.49045 | 18.09136 | 35390 ft | 419 kts | 55° |
| 2026-04-30 12:09 | 48.52113 | 18.16563 | 35383 ft | 419 kts | 55° |
| 2026-04-30 12:10 | 48.55177 | 18.23994 | 35377 ft | 419 kts | 55° |
| 2026-04-30 12:10 | 48.58255 | 18.31485 | 35284 ft | 420 kts | 55° |
| 2026-04-30 12:10 | 48.59784 | 18.35212 | 35060 ft | 417 kts | 55° |
| 2026-04-30 12:11 | 48.61296 | 18.38903 | 34846 ft | 414 kts | 56° |
| 2026-04-30 12:11 | 48.62808 | 18.42601 | 34618 ft | 412 kts | 56° |
| 2026-04-30 12:11 | 48.64310 | 18.46279 | 34395 ft | 410 kts | 56° |
| 2026-04-30 12:11 | 48.65836 | 18.49853 | 34185 ft | 407 kts | 53° |
| 2026-04-30 12:12 | 48.67470 | 18.53299 | 33996 ft | 405 kts | 51° |
| 2026-04-30 12:12 | 48.69216 | 18.56606 | 33806 ft | 402 kts | 48° |
| 2026-04-30 12:12 | 48.71065 | 18.59761 | 33627 ft | 400 kts | 45° |
| 2026-04-30 12:12 | 48.73016 | 18.62763 | 33439 ft | 398 kts | 42° |
| 2026-04-30 12:13 | 48.75066 | 18.65623 | 33240 ft | 396 kts | 41° |
| 2026-04-30 12:13 | 48.77107 | 18.68371 | 33055 ft | 394 kts | 41° |
| 2026-04-30 12:13 | 48.79162 | 18.71117 | 32843 ft | 392 kts | 41° |
| 2026-04-30 12:13 | 48.81167 | 18.73798 | 32648 ft | 390 kts | 41° |
| 2026-04-30 12:14 | 48.83209 | 18.76530 | 32372 ft | 388 kts | 41° |
| 2026-04-30 12:14 | 48.85200 | 18.79198 | 31976 ft | 387 kts | 41° |
| 2026-04-30 12:14 | 48.87226 | 18.81917 | 31570 ft | 385 kts | 41° |
| 2026-04-30 12:14 | 48.89191 | 18.84625 | 31143 ft | 382 kts | 42° |
| 2026-04-30 12:15 | 48.91120 | 18.87335 | 30690 ft | 378 kts | 42° |
| 2026-04-30 12:15 | 48.93030 | 18.90024 | 30273 ft | 373 kts | 42° |
| 2026-04-30 12:15 | 48.94904 | 18.92660 | 29868 ft | 368 kts | 42° |
| 2026-04-30 12:15 | 48.96780 | 18.95297 | 29471 ft | 363 kts | 42° |
| 2026-04-30 12:16 | 48.98611 | 18.97872 | 29081 ft | 358 kts | 42° |
| 2026-04-30 12:16 | 49.00429 | 19.00428 | 28706 ft | 353 kts | 42° |
| 2026-04-30 12:16 | 49.02211 | 19.02933 | 28311 ft | 349 kts | 42° |
| 2026-04-30 12:16 | 49.04000 | 19.05452 | 27935 ft | 345 kts | 42° |
| 2026-04-30 12:17 | 49.07456 | 19.10322 | 27196 ft | 337 kts | 41° |
| 2026-04-30 12:17 | 49.09176 | 19.12749 | 26823 ft | 333 kts | 41° |
| 2026-04-30 12:17 | 49.10842 | 19.15101 | 26474 ft | 329 kts | 41° |
| 2026-04-30 12:18 | 49.12515 | 19.17452 | 26097 ft | 326 kts | 41° |
| 2026-04-30 12:18 | 49.14176 | 19.19792 | 25733 ft | 323 kts | 41° |
| 2026-04-30 12:18 | 49.15802 | 19.22089 | 25369 ft | 320 kts | 41° |
| 2026-04-30 12:18 | 49.17422 | 19.24385 | 24989 ft | 318 kts | 41° |
| 2026-04-30 12:19 | 49.19040 | 19.26679 | 24621 ft | 315 kts | 41° |
| 2026-04-30 12:19 | 49.20634 | 19.28944 | 24246 ft | 313 kts | 41° |
| 2026-04-30 12:19 | 49.22228 | 19.31208 | 23879 ft | 311 kts | 41° |
| 2026-04-30 12:19 | 49.23801 | 19.33449 | 23499 ft | 309 kts | 41° |
| 2026-04-30 12:20 | 49.25346 | 19.35653 | 23123 ft | 307 kts | 41° |
| 2026-04-30 12:20 | 49.26913 | 19.37891 | 22721 ft | 305 kts | 41° |
| 2026-04-30 12:20 | 49.28448 | 19.40084 | 22331 ft | 304 kts | 41° |
| 2026-04-30 12:20 | 49.29979 | 19.42277 | 21947 ft | 302 kts | 41° |
| 2026-04-30 12:21 | 49.31501 | 19.44456 | 21566 ft | 300 kts | 41° |
| 2026-04-30 12:21 | 49.33014 | 19.46625 | 21190 ft | 298 kts | 41° |
| 2026-04-30 12:21 | 49.34528 | 19.48797 | 20808 ft | 296 kts | 41° |
| 2026-04-30 12:21 | 49.36023 | 19.50943 | 20435 ft | 295 kts | 41° |
| 2026-04-30 12:22 | 49.37522 | 19.53095 | 20053 ft | 293 kts | 41° |
| 2026-04-30 12:22 | 49.38996 | 19.55216 | 19670 ft | 292 kts | 41° |
| 2026-04-30 12:22 | 49.40480 | 19.57355 | 19302 ft | 290 kts | 41° |
| 2026-04-30 12:22 | 49.41953 | 19.59476 | 18934 ft | 288 kts | 41° |
| 2026-04-30 12:23 | 49.43391 | 19.61549 | 18571 ft | 287 kts | 41° |
| 2026-04-30 12:23 | 49.44845 | 19.63650 | 18205 ft | 285 kts | 42° |
| 2026-04-30 12:23 | 49.46248 | 19.65811 | 17842 ft | 284 kts | 45° |
| 2026-04-30 12:23 | 49.47617 | 19.68037 | 17475 ft | 283 kts | 45° |
| 2026-04-30 12:24 | 49.48960 | 19.70231 | 17122 ft | 282 kts | 45° |
| 2026-04-30 12:24 | 49.50304 | 19.72423 | 16745 ft | 281 kts | 45° |
| 2026-04-30 12:24 | 49.51622 | 19.74574 | 16395 ft | 280 kts | 45° |
| 2026-04-30 12:24 | 49.52957 | 19.76750 | 16043 ft | 279 kts | 45° |
| 2026-04-30 12:25 | 49.54297 | 19.78936 | 15675 ft | 278 kts | 45° |
| 2026-04-30 12:25 | 49.55619 | 19.81092 | 15326 ft | 276 kts | 45° |
| 2026-04-30 12:25 | 49.56921 | 19.83216 | 14978 ft | 275 kts | 45° |
| 2026-04-30 12:25 | 49.58239 | 19.85370 | 14618 ft | 274 kts | 45° |
| 2026-04-30 12:26 | 49.59540 | 19.87497 | 14275 ft | 273 kts | 45° |
| 2026-04-30 12:26 | 49.60843 | 19.89626 | 13913 ft | 272 kts | 45° |
| 2026-04-30 12:26 | 49.62145 | 19.91755 | 13562 ft | 271 kts | 45° |
| 2026-04-30 12:26 | 49.63427 | 19.93854 | 13208 ft | 270 kts | 45° |
| 2026-04-30 12:27 | 49.64734 | 19.95994 | 12512 ft | 280 kts | 45° |
| 2026-04-30 12:27 | 49.66081 | 19.98202 | 11720 ft | 292 kts | 46° |
| 2026-04-30 12:27 | 49.67481 | 20.00504 | 11143 ft | 294 kts | 46° |
| 2026-04-30 12:27 | 49.68871 | 20.02792 | 10798 ft | 288 kts | 46° |
| 2026-04-30 12:28 | 49.70219 | 20.05014 | 10436 ft | 284 kts | 46° |
| 2026-04-30 12:28 | 49.71560 | 20.07223 | 10106 ft | 279 kts | 46° |
| 2026-04-30 12:28 | 49.72866 | 20.09377 | 9769 ft | 275 kts | 46° |
| 2026-04-30 12:28 | 49.74164 | 20.11521 | 9415 ft | 270 kts | 46° |
| 2026-04-30 12:29 | 49.75445 | 20.13636 | 9097 ft | 266 kts | 46° |
| 2026-04-30 12:29 | 49.76707 | 20.15674 | 8778 ft | 261 kts | 41° |
| 2026-04-30 12:29 | 49.78264 | 20.17030 | 8402 ft | 258 kts | 15° |
| 2026-04-30 12:29 | 49.80035 | 20.17172 | 8043 ft | 258 kts | 352° |
| 2026-04-30 12:30 | 49.81721 | 20.16288 | 7667 ft | 258 kts | 340° |
| 2026-04-30 12:30 | 49.83368 | 20.15194 | 7259 ft | 258 kts | 339° |
| 2026-04-30 12:30 | 49.85012 | 20.14089 | 6869 ft | 257 kts | 339° |
| 2026-04-30 12:30 | 49.86660 | 20.12988 | 6440 ft | 258 kts | 338° |
| 2026-04-30 12:31 | 49.88295 | 20.11898 | 6041 ft | 257 kts | 338° |
| 2026-04-30 12:31 | 49.89922 | 20.10814 | 5702 ft | 255 kts | 339° |
| 2026-04-30 12:31 | 49.91550 | 20.09732 | 5384 ft | 251 kts | 338° |
| 2026-04-30 12:31 | 49.93142 | 20.08674 | 5095 ft | 248 kts | 338° |
| 2026-04-30 12:32 | 49.94705 | 20.07636 | 4815 ft | 244 kts | 338° |
| 2026-04-30 12:32 | 49.96255 | 20.06605 | 4533 ft | 241 kts | 338° |
| 2026-04-30 12:32 | 49.97790 | 20.05586 | 4256 ft | 238 kts | 338° |
| 2026-04-30 12:32 | 49.99309 | 20.04576 | 3973 ft | 236 kts | 338° |
| 2026-04-30 12:33 | 50.00806 | 20.03579 | 3692 ft | 234 kts | 338° |
| 2026-04-30 12:33 | 50.02291 | 20.02592 | 3416 ft | 232 kts | 338° |
| 2026-04-30 12:33 | 50.03740 | 20.01626 | 3349 ft | 219 kts | 338° |
| 2026-04-30 12:33 | 50.05122 | 20.00703 | 3320 ft | 216 kts | 338° |
| 2026-04-30 12:34 | 50.06490 | 19.99791 | 3266 ft | 210 kts | 338° |
| 2026-04-30 12:34 | 50.07798 | 19.98918 | 3148 ft | 201 kts | 338° |
| 2026-04-30 12:34 | 50.09101 | 19.98050 | 3027 ft | 201 kts | 338° |
| 2026-04-30 12:34 | 50.10222 | 19.96870 | 3070 ft | 191 kts | 309° |
| 2026-04-30 12:35 | 50.10508 | 19.94968 | 2987 ft | 180 kts | 263° |
| 2026-04-30 12:35 | 50.10139 | 19.93201 | 2900 ft | 164 kts | 251° |
| 2026-04-30 12:35 | 50.09755 | 19.91587 | 2628 ft | 152 kts | 253° |
| 2026-04-30 12:35 | 50.09446 | 19.90057 | 2247 ft | 147 kts | 255° |
| 2026-04-30 12:36 | 50.09186 | 19.88562 | 1870 ft | 143 kts | 258° |
| 2026-04-30 12:36 | 50.08970 | 19.87061 | 1461 ft | 140 kts | 259° |
| 2026-04-30 12:36 | 50.08781 | 19.85653 | 1350 ft | 135 kts | 259° |
| 2026-04-30 12:36 | 50.08577 | 19.84175 | 1394 ft | 142 kts | 258° |
| 2026-04-30 12:37 | 50.08358 | 19.82679 | 1270 ft | 142 kts | 259° |
| 2026-04-30 12:37 | 50.08152 | 19.81163 | 1047 ft | 141 kts | 259° |
| 2026-04-30 12:37 | 50.07935 | 19.79657 | 833 ft | 141 kts | 257° |
| 2026-04-30 12:37 | 50.07752 | 19.78351 | 798 ft | 91 kts | 257° |
| 2026-04-30 12:38 | 50.07668 | 19.77772 | 798 ft | 38 kts | 259° |
| 2026-04-30 12:38 | 50.07614 | 19.77376 | 798 ft | 35 kts | 260° |
| 2026-04-30 12:38 | 50.07564 | 19.77042 | 798 ft | 30 kts | 257° |
| 2026-04-30 12:38 | 50.07467 | 19.76858 | 798 ft | 21 kts | 178° |
| 2026-04-30 12:39 | 50.07330 | 19.76915 | 798 ft | 17 kts | 139° |
| 2026-04-30 12:39 | 50.07328 | 19.77099 | 798 ft | 18 kts | 77° |
| 2026-04-30 12:39 | 50.07357 | 19.77304 | 798 ft | 20 kts | 78° |
| 2026-04-30 12:39 | 50.07394 | 19.77561 | 798 ft | 27 kts | 78° |
| 2026-04-30 12:40 | 50.07433 | 19.77843 | 798 ft | 26 kts | 78° |
| 2026-04-30 12:40 | 50.07470 | 19.78126 | 798 ft | 26 kts | 79° |
| 2026-04-30 12:40 | 50.07506 | 19.78400 | 798 ft | 25 kts | 79° |
| 2026-04-30 12:40 | 50.07544 | 19.78673 | 798 ft | 25 kts | 76° |
| 2026-04-30 12:41 | 50.07586 | 19.78941 | 798 ft | 25 kts | 77° |
| 2026-04-30 12:41 | 50.07623 | 19.79209 | 798 ft | 25 kts | 79° |
| 2026-04-30 12:41 | 50.07651 | 19.79427 | 798 ft | 20 kts | 78° |
| 2026-04-30 12:41 | 50.07682 | 19.79634 | 798 ft | 15 kts | 88° |
| 2026-04-30 12:42 | 50.07599 | 19.79716 | 798 ft | 16 kts | 167° |
| 2026-04-30 12:42 | 50.07483 | 19.79755 | 798 ft | 17 kts | 168° |
| 2026-04-30 12:42 | 50.07376 | 19.79824 | 798 ft | 17 kts | 109° |
| 2026-04-30 12:42 | 50.07405 | 19.80007 | 798 ft | 17 kts | 75° |
| 2026-04-30 12:43 | 50.07428 | 19.80198 | 799 ft | 18 kts | 80° |
| 2026-04-30 12:43 | 50.07442 | 19.80320 | 798 ft | 6 kts | 88° |
| 2026-04-30 12:43 | 50.07401 | 19.80370 | 799 ft | 9 kts | 167° |
| 2026-04-30 12:43 | 50.07364 | 19.80382 | 799 ft | 0 kts | 169° |